sensor_id;sensor_type;location;lat;lon;timestamp;pressure;altitude;pressure_sealevel;temperature;humidity
30744;BME280;17486;46.738;7.622;2023-01-23T00:00:27;95881.69;;;0.47;54.39
30744;BME280;17486;46.738;7.622;2023-01-23T00:02:52;95890.25;;;0.57;54.49
30744;BME280;17486;46.738;7.622;2023-01-23T00:05:18;95896.19;;;0.59;54.42
30744;BME280;17486;46.738;7.622;2023-01-23T00:07:43;95938.00;;;0.89;54.68
30744;BME280;17486;46.738;7.622;2023-01-23T00:10:10;95941.44;;;0.89;54.21
30744;BME280;17486;46.738;7.622;2023-01-23T00:12:36;95874.91;;;0.47;54.22
30744;BME280;17486;46.738;7.622;2023-01-23T00:15:01;95959.38;;;0.89;54.49
30744;BME280;17486;46.738;7.622;2023-01-23T00:17:27;95950.81;;;0.93;54.51
30744;BME280;17486;46.738;7.622;2023-01-23T00:19:54;95949.97;;;0.93;54.48
30744;BME280;17486;46.738;7.622;2023-01-23T00:22:20;95942.28;;;0.91;54.24
30744;BME280;17486;46.738;7.622;2023-01-23T00:24:45;95949.97;;;0.93;54.26
30744;BME280;17486;46.738;7.622;2023-01-23T00:27:11;95935.47;;;0.87;54.54
30744;BME280;17486;46.738;7.622;2023-01-23T00:29:36;95957.66;;;0.90;54.50
30744;BME280;17486;46.738;7.622;2023-01-23T00:32:02;95932.03;;;0.93;54.26
30744;BME280;17486;46.738;7.622;2023-01-23T00:34:27;95933.75;;;0.92;54.77
30744;BME280;17486;46.738;7.622;2023-01-23T00:36:53;95871.50;;;0.58;53.99
30744;BME280;17486;46.738;7.622;2023-01-23T00:39:19;95862.94;;;0.48;54.34
30744;BME280;17486;46.738;7.622;2023-01-23T00:41:46;95877.44;;;0.60;54.79
30744;BME280;17486;46.738;7.622;2023-01-23T00:44:12;95873.16;;;0.59;54.42
30744;BME280;17486;46.738;7.622;2023-01-23T00:46:38;95902.19;;;0.76;54.80
30744;BME280;17486;46.738;7.622;2023-01-23T00:49:03;95857.84;;;0.46;54.45
30744;BME280;17486;46.738;7.622;2023-01-23T00:51:29;95918.38;;;0.86;54.22
30744;BME280;17486;46.738;7.622;2023-01-23T00:53:54;95926.06;;;0.92;54.37
30744;BME280;17486;46.738;7.622;2023-01-23T00:56:20;95880.84;;;0.68;54.83
30744;BME280;17486;46.738;7.622;2023-01-23T00:58:45;95851.84;;;0.52;54.44
30744;BME280;17486;46.738;7.622;2023-01-23T01:01:11;95848.44;;;0.47;54.48
30744;BME280;17486;46.738;7.622;2023-01-23T01:03:38;95913.25;;;0.88;54.71
30744;BME280;17486;46.738;7.622;2023-01-23T01:06:03;95912.41;;;0.86;54.58
30744;BME280;17486;46.738;7.622;2023-01-23T01:08:29;95914.13;;;0.83;54.57
30744;BME280;17486;46.738;7.622;2023-01-23T01:10:54;95932.03;;;0.93;54.54
30744;BME280;17486;46.738;7.622;2023-01-23T01:13:20;95922.66;;;0.90;54.62
30744;BME280;17486;46.738;7.622;2023-01-23T01:15:48;95932.06;;;0.87;54.55
30744;BME280;17486;46.738;7.622;2023-01-23T01:18:14;95859.53;;;0.54;55.05
30744;BME280;17486;46.738;7.622;2023-01-23T01:20:41;95883.41;;;0.65;54.96
30744;BME280;17486;46.738;7.622;2023-01-23T01:23:07;95903.91;;;0.77;54.97
30744;BME280;17486;46.738;7.622;2023-01-23T01:25:33;95926.06;;;0.91;55.15
30744;BME280;17486;46.738;7.622;2023-01-23T01:27:58;95899.63;;;0.78;54.74
30744;BME280;17486;46.738;7.622;2023-01-23T01:30:24;95909.00;;;0.83;55.06
30744;BME280;17486;46.738;7.622;2023-01-23T01:32:52;95931.19;;;0.91;54.89
30744;BME280;17486;46.738;7.622;2023-01-23T01:35:18;95915.84;;;0.81;54.74
30744;BME280;17486;46.738;7.622;2023-01-23T01:37:43;95867.22;;;0.51;55.19
30744;BME280;17486;46.738;7.622;2023-01-23T01:40:13;95917.53;;;0.79;55.25
30744;BME280;17486;46.738;7.622;2023-01-23T01:42:42;95928.63;;;0.88;55.36
30744;BME280;17486;46.738;7.622;2023-01-23T01:48:10;95859.53;;;0.51;55.34
30744;BME280;17486;46.738;7.622;2023-01-23T01:50:36;95919.25;;;0.71;55.12
30744;BME280;17486;46.738;7.622;2023-01-23T01:53:01;95905.59;;;0.75;55.54
30744;BME280;17486;46.738;7.622;2023-01-23T01:55:27;95929.47;;;0.85;55.12
30744;BME280;17486;46.738;7.622;2023-01-23T01:57:53;95925.22;;;0.86;55.03
30744;BME280;17486;46.738;7.622;2023-01-23T02:00:19;95862.09;;;0.44;55.21
30744;BME280;17486;46.738;7.622;2023-01-23T02:02:50;95921.81;;;0.80;55.13
30744;BME280;17486;46.738;7.622;2023-01-23T02:05:21;95910.72;;;0.75;54.92
30744;BME280;17486;46.738;7.622;2023-01-23T02:08:04;95885.97;;;0.59;55.58
30744;BME280;17486;46.738;7.622;2023-01-23T02:10:31;95940.56;;;0.81;55.49
30744;BME280;17486;46.738;7.622;2023-01-23T02:13:37;95923.50;;;0.77;55.61
30744;BME280;17486;46.738;7.622;2023-01-23T02:16:09;95855.28;;;0.36;55.48
30744;BME280;17486;46.738;7.622;2023-01-23T02:18:41;95872.34;;;0.46;55.54
30744;BME280;17486;46.738;7.622;2023-01-23T02:21:10;95884.28;;;0.44;55.38
30744;BME280;17486;46.738;7.622;2023-01-23T02:26:06;95931.19;;;0.68;55.59
30744;BME280;17486;46.738;7.622;2023-01-23T02:28:39;95909.84;;;0.55;55.75
30744;BME280;17486;46.738;7.622;2023-01-23T02:31:05;95848.44;;;0.30;55.30
30744;BME280;17486;46.738;7.622;2023-01-23T02:36:01;95919.25;;;0.71;55.38
30744;BME280;17486;46.738;7.622;2023-01-23T02:38:34;95920.09;;;0.73;55.92
30744;BME280;17486;46.738;7.622;2023-01-23T02:41:02;95869.78;;;0.41;55.40
30744;BME280;17486;46.738;7.622;2023-01-23T02:43:31;95915.84;;;0.68;55.58
30744;BME280;17486;46.738;7.622;2023-01-23T02:46:09;95857.81;;;0.31;55.64
30744;BME280;17486;46.738;7.622;2023-01-23T02:48:37;95911.56;;;0.66;55.71
30744;BME280;17486;46.738;7.622;2023-01-23T02:51:05;95846.75;;;0.29;55.70
30744;BME280;17486;46.738;7.622;2023-01-23T02:53:30;95912.41;;;0.65;55.53
30744;BME280;17486;46.738;7.622;2023-01-23T02:55:56;95839.09;;;0.29;55.79
30744;BME280;17486;46.738;7.622;2023-01-23T02:58:23;95845.91;;;0.33;55.72
30744;BME280;17486;46.738;7.622;2023-01-23T03:01:07;95831.38;;;0.26;55.38
30744;BME280;17486;46.738;7.622;2023-01-23T03:03:33;95864.66;;;0.41;55.42
30744;BME280;17486;46.738;7.622;2023-01-23T03:05:58;95908.16;;;0.69;55.26
30744;BME280;17486;46.738;7.622;2023-01-23T03:08:27;95900.50;;;0.63;55.53
30744;BME280;17486;46.738;7.622;2023-01-23T03:10:58;95848.47;;;0.35;55.59
30744;BME280;17486;46.738;7.622;2023-01-23T03:13:23;95891.09;;;0.62;55.45
30744;BME280;17486;46.738;7.622;2023-01-23T03:15:50;95895.38;;;0.63;55.65
30744;BME280;17486;46.738;7.622;2023-01-23T03:18:18;95912.41;;;0.65;55.69
30744;BME280;17486;46.738;7.622;2023-01-23T03:20:44;95911.56;;;0.66;55.48
30744;BME280;17486;46.738;7.622;2023-01-23T03:23:10;95909.03;;;0.62;55.54
30744;BME280;17486;46.738;7.622;2023-01-23T03:25:35;95903.03;;;0.61;55.50
30744;BME280;17486;46.738;7.622;2023-01-23T03:28:01;95921.81;;;0.60;55.36
30744;BME280;17486;46.738;7.622;2023-01-23T03:30:26;95918.41;;;0.63;55.83
30744;BME280;17486;46.738;7.622;2023-01-23T03:32:52;95848.44;;;0.22;55.58
30744;BME280;17486;46.738;7.622;2023-01-23T03:35:18;95920.09;;;0.64;55.47
30744;BME280;17486;46.738;7.622;2023-01-23T03:37:47;95903.06;;;0.55;55.33
30744;BME280;17486;46.738;7.622;2023-01-23T03:40:21;95893.66;;;0.49;55.61
30744;BME280;17486;46.738;7.622;2023-01-23T03:43:05;95908.16;;;0.60;55.80
30744;BME280;17486;46.738;7.622;2023-01-23T03:45:31;95843.31;;;0.21;55.93
30744;BME280;17486;46.738;7.622;2023-01-23T03:47:57;95914.13;;;0.62;55.90
30744;BME280;17486;46.738;7.622;2023-01-23T03:50:22;95908.16;;;0.57;55.45
30744;BME280;17486;46.738;7.622;2023-01-23T03:52:48;95914.13;;;0.62;55.52
30744;BME280;17486;46.738;7.622;2023-01-23T03:55:13;95917.53;;;0.61;55.75
30744;BME280;17486;46.738;7.622;2023-01-23T03:57:38;95839.91;;;0.15;55.96
30744;BME280;17486;46.738;7.622;2023-01-23T04:00:05;95921.81;;;0.59;55.74
30744;BME280;17486;46.738;7.622;2023-01-23T04:02:31;95864.66;;;0.26;55.99
30744;BME280;17486;46.738;7.622;2023-01-23T04:04:57;95906.44;;;0.48;55.88
30744;BME280;17486;46.738;7.622;2023-01-23T04:07:22;95900.47;;;0.44;55.89
30744;BME280;17486;46.738;7.622;2023-01-23T04:09:47;95919.22;;;0.51;55.90
30744;BME280;17486;46.738;7.622;2023-01-23T04:12:13;95920.13;;;0.58;55.96
30744;BME280;17486;46.738;7.622;2023-01-23T04:14:38;95867.22;;;0.23;55.93
30744;BME280;17486;46.738;7.622;2023-01-23T04:17:04;95896.22;;;0.40;56.13
30744;BME280;17486;46.738;7.622;2023-01-23T04:19:31;95906.47;;;0.53;56.05
30744;BME280;17486;46.738;7.622;2023-01-23T04:21:56;95860.38;;;0.22;56.34
30744;BME280;17486;46.738;7.622;2023-01-23T04:24:22;95898.78;;;0.45;56.00
30744;BME280;17486;46.738;7.622;2023-01-23T04:26:47;95907.31;;;0.55;56.52
30744;BME280;17486;46.738;7.622;2023-01-23T04:29:12;95905.59;;;0.49;56.43
30744;BME280;17486;46.738;7.622;2023-01-23T04:31:38;95917.53;;;0.48;56.56
30744;BME280;17486;46.738;7.622;2023-01-23T04:34:04;95866.38;;;0.25;56.47
30744;BME280;17486;46.738;7.622;2023-01-23T04:36:29;95851.00;;;0.18;56.25
30744;BME280;17486;46.738;7.622;2023-01-23T04:38:55;95895.34;;;0.51;56.67
30744;BME280;17486;46.738;7.622;2023-01-23T04:41:25;95881.72;;;0.42;56.17
30744;BME280;17486;46.738;7.622;2023-01-23T04:43:51;95891.94;;;0.47;55.93
30744;BME280;17486;46.738;7.622;2023-01-23T04:46:17;95901.34;;;0.54;56.21
30744;BME280;17486;46.738;7.622;2023-01-23T04:48:42;95915.81;;;0.54;56.15
30744;BME280;17486;46.738;7.622;2023-01-23T04:51:08;95846.75;;;0.13;56.42
30744;BME280;17486;46.738;7.622;2023-01-23T04:53:33;95903.91;;;0.53;56.45
30744;BME280;17486;46.738;7.622;2023-01-23T04:55:59;95855.28;;;0.22;56.31
30744;BME280;17486;46.738;7.622;2023-01-23T04:58:24;95911.56;;;0.54;56.53
30744;BME280;17486;46.738;7.622;2023-01-23T05:00:50;95859.50;;;0.20;56.30
30744;BME280;17486;46.738;7.622;2023-01-23T05:03:16;95909.00;;;0.56;56.56
30744;BME280;17486;46.738;7.622;2023-01-23T05:05:41;95885.13;;;0.38;56.13
30744;BME280;17486;46.738;7.622;2023-01-23T05:08:09;95898.78;;;0.56;56.51
30744;BME280;17486;46.738;7.622;2023-01-23T05:10:35;95904.72;;;0.47;56.20
30744;BME280;17486;46.738;7.622;2023-01-23T05:13:01;95893.66;;;0.49;56.08
30744;BME280;17486;46.738;7.622;2023-01-23T05:15:27;95902.19;;;0.55;56.48
30744;BME280;17486;46.738;7.622;2023-01-23T05:17:53;95839.94;;;0.19;56.33
30744;BME280;17486;46.738;7.622;2023-01-23T05:20:18;95909.00;;;0.49;56.60
30744;BME280;17486;46.738;7.622;2023-01-23T05:22:44;95844.16;;;0.20;56.45
30744;BME280;17486;46.738;7.622;2023-01-23T05:25:24;95854.44;;;0.29;56.50
30744;BME280;17486;46.738;7.622;2023-01-23T05:27:50;95907.31;;;0.55;56.56
30744;BME280;17486;46.738;7.622;2023-01-23T05:30:17;95830.56;;;0.14;56.42
30744;BME280;17486;46.738;7.622;2023-01-23T05:32:44;95831.41;;;0.13;56.43
30744;BME280;17486;46.738;7.622;2023-01-23T05:35:10;95880.88;;;0.43;56.32
30744;BME280;17486;46.738;7.622;2023-01-23T05:37:35;95826.25;;;0.10;56.41
30744;BME280;17486;46.738;7.622;2023-01-23T05:40:01;95898.78;;;0.53;56.32
30744;BME280;17486;46.738;7.622;2023-01-23T05:42:27;95847.59;;;0.28;56.26
30744;BME280;17486;46.738;7.622;2023-01-23T05:44:52;95875.75;;;0.46;56.09
30744;BME280;17486;46.738;7.622;2023-01-23T05:47:18;95818.59;;;0.09;56.37
30744;BME280;17486;46.738;7.622;2023-01-23T05:49:43;95851.84;;;0.35;56.24
30744;BME280;17486;46.738;7.622;2023-01-23T05:52:10;95893.66;;;0.56;56.54
30744;BME280;17486;46.738;7.622;2023-01-23T05:54:35;95896.22;;;0.54;56.19
30744;BME280;17486;46.738;7.622;2023-01-23T05:57:00;95826.28;;;0.15;56.28
30744;BME280;17486;46.738;7.622;2023-01-23T05:59:26;95821.16;;;0.10;55.89
30744;BME280;17486;46.738;7.622;2023-01-23T06:01:51;95837.38;;;0.09;56.53
30744;BME280;17486;46.738;7.622;2023-01-23T06:04:16;95885.97;;;0.34;56.42
30744;BME280;17486;46.738;7.622;2023-01-23T06:06:43;95885.97;;;0.39;55.94
30744;BME280;17486;46.738;7.622;2023-01-23T06:09:09;95900.50;;;0.47;56.24
30744;BME280;17486;46.738;7.622;2023-01-23T06:11:34;95926.06;;;0.54;56.17
30744;BME280;17486;46.738;7.622;2023-01-23T06:14:00;95919.25;;;0.53;56.47
30744;BME280;17486;46.738;7.622;2023-01-23T06:16:25;95924.38;;;0.46;56.71
30744;BME280;17486;46.738;7.622;2023-01-23T06:18:51;95859.53;;;0.13;56.10
30744;BME280;17486;46.738;7.622;2023-01-23T06:21:16;95932.06;;;0.54;56.50
30744;BME280;17486;46.738;7.622;2023-01-23T06:23:43;95851.88;;;0.13;56.58
30744;BME280;17486;46.738;7.622;2023-01-23T06:26:10;95842.47;;;0.09;56.71
30744;BME280;17486;46.738;7.622;2023-01-23T06:28:35;95847.59;;;0.12;56.63
30744;BME280;17486;46.738;7.622;2023-01-23T06:31:02;95917.53;;;0.55;56.13
30744;BME280;17486;46.738;7.622;2023-01-23T06:33:28;95855.25;;;0.14;56.14
30744;BME280;17486;46.738;7.622;2023-01-23T06:36:01;95923.53;;;0.55;56.13
30744;BME280;17486;46.738;7.622;2023-01-23T06:38:27;95897.06;;;0.38;56.46
30744;BME280;17486;46.738;7.622;2023-01-23T06:40:53;95920.09;;;0.55;56.38
30744;BME280;17486;46.738;7.622;2023-01-23T06:43:19;95917.53;;;0.55;55.89
30744;BME280;17486;46.738;7.622;2023-01-23T06:45:45;95897.06;;;0.39;56.10
30744;BME280;17486;46.738;7.622;2023-01-23T06:48:11;95932.88;;;0.55;55.99
30744;BME280;17486;46.738;7.622;2023-01-23T06:50:39;95904.75;;;0.44;55.97
30744;BME280;17486;46.738;7.622;2023-01-23T06:53:05;95839.91;;;0.05;56.05
30744;BME280;17486;46.738;7.622;2023-01-23T06:55:31;95846.72;;;0.10;55.81
30744;BME280;17486;46.738;7.622;2023-01-23T06:57:56;95920.09;;;0.48;56.08
30744;BME280;17486;46.738;7.622;2023-01-23T07:00:22;95932.88;;;0.56;56.56
30744;BME280;17486;46.738;7.622;2023-01-23T07:02:47;95932.91;;;0.52;56.51
30744;BME280;17486;46.738;7.622;2023-01-23T07:05:13;95934.63;;;0.53;56.45
30744;BME280;17486;46.738;7.622;2023-01-23T07:07:38;95938.88;;;0.58;56.45
30744;BME280;17486;46.738;7.622;2023-01-23T07:10:04;95937.16;;;0.59;56.28
30744;BME280;17486;46.738;7.622;2023-01-23T07:12:30;95937.19;;;0.60;56.31
30744;BME280;17486;46.738;7.622;2023-01-23T07:14:55;95880.00;;;0.23;56.46
30744;BME280;17486;46.738;7.622;2023-01-23T07:17:21;95945.69;;;0.64;56.13
30744;BME280;17486;46.738;7.622;2023-01-23T07:19:46;95889.38;;;0.30;56.41
30744;BME280;17486;46.738;7.622;2023-01-23T07:22:12;95935.47;;;0.61;56.21
30744;BME280;17486;46.738;7.622;2023-01-23T07:26:19;95930.31;;;0.56;56.60
30744;BME280;17486;46.738;7.622;2023-01-23T07:28:44;95891.94;;;0.30;56.71
30744;BME280;17486;46.738;7.622;2023-01-23T07:31:10;95963.63;;;0.58;56.51
30744;BME280;17486;46.738;7.622;2023-01-23T07:33:35;95944.00;;;0.66;56.63
30744;BME280;17486;46.738;7.622;2023-01-23T07:36:04;95905.59;;;0.41;56.56
30744;BME280;17486;46.738;7.622;2023-01-23T07:38:30;95885.13;;;0.32;56.80
30744;BME280;17486;46.738;7.622;2023-01-23T07:40:57;95953.38;;;0.72;56.59
30744;BME280;17486;46.738;7.622;2023-01-23T07:43:23;95931.19;;;0.58;56.50
30744;BME280;17486;46.738;7.622;2023-01-23T07:45:48;95899.63;;;0.35;56.49
30744;BME280;17486;46.738;7.622;2023-01-23T07:48:14;95940.59;;;0.61;56.56
30744;BME280;17486;46.738;7.622;2023-01-23T07:50:40;95962.75;;;0.74;56.37
30744;BME280;17486;46.738;7.622;2023-01-23T07:53:05;95883.41;;;0.31;56.33
30744;BME280;17486;46.738;7.622;2023-01-23T08:12:43;95897.78;;;-0.30;59.24
30744;BME280;17486;46.738;7.622;2023-01-23T08:15:09;95932.88;;;0.24;58.10
30744;BME280;17486;46.738;7.622;2023-01-23T08:17:35;95942.28;;;0.46;57.40
30744;BME280;17486;46.738;7.622;2023-01-23T08:20:01;95938.00;;;0.64;56.87
30744;BME280;17486;46.738;7.622;2023-01-23T08:22:26;95943.16;;;0.76;56.67
30744;BME280;17486;46.738;7.622;2023-01-23T08:24:51;95922.66;;;0.86;56.83
30744;BME280;17486;46.738;7.622;2023-01-23T08:27:17;95920.94;;;0.85;56.00
30744;BME280;17486;46.738;7.622;2023-01-23T08:29:42;95926.06;;;0.94;55.95
30744;BME280;17486;46.738;7.622;2023-01-23T08:32:08;95894.50;;;0.81;55.76
30744;BME280;17486;46.738;7.622;2023-01-23T08:34:33;95895.34;;;0.85;55.37
30744;BME280;17486;46.738;7.622;2023-01-23T08:36:59;95891.94;;;0.87;55.85
30744;BME280;17486;46.738;7.622;2023-01-23T08:39:24;95918.38;;;1.09;55.25
30744;BME280;17486;46.738;7.622;2023-01-23T08:41:50;95923.50;;;1.06;55.32
30744;BME280;17486;46.738;7.622;2023-01-23T08:44:15;95921.78;;;1.11;55.74
30744;BME280;17486;46.738;7.622;2023-01-23T08:46:41;95934.59;;;1.11;55.67
30744;BME280;17486;46.738;7.622;2023-01-23T08:49:07;95878.28;;;0.87;55.10
30744;BME280;17486;46.738;7.622;2023-01-23T08:51:34;95918.38;;;1.06;55.34
30744;BME280;17486;46.738;7.622;2023-01-23T08:53:59;95912.41;;;1.01;55.70
30744;BME280;17486;46.738;7.622;2023-01-23T08:56:25;95890.22;;;0.85;55.65
30744;BME280;17486;46.738;7.622;2023-01-23T08:58:50;95918.38;;;1.09;55.82
30744;BME280;17486;46.738;7.622;2023-01-23T09:01:21;95882.53;;;0.85;55.28
30744;BME280;17486;46.738;7.622;2023-01-23T09:03:47;95880.88;;;0.77;55.26
30744;BME280;17486;46.738;7.622;2023-01-23T09:06:15;95931.19;;;0.98;55.09
30744;BME280;17486;46.738;7.622;2023-01-23T09:08:41;95917.53;;;1.01;55.50
30744;BME280;17486;46.738;7.622;2023-01-23T09:11:08;95903.88;;;0.99;55.46
30744;BME280;17486;46.738;7.622;2023-01-23T09:13:35;95914.09;;;1.02;55.01
30744;BME280;17486;46.738;7.622;2023-01-23T09:16:01;95899.56;;;0.99;54.89
30744;BME280;17486;46.738;7.622;2023-01-23T09:18:27;95914.09;;;1.08;55.27
30744;BME280;17486;46.738;7.622;2023-01-23T09:20:53;95870.59;;;0.88;54.69
30744;BME280;17486;46.738;7.622;2023-01-23T09:23:19;95920.06;;;1.15;54.74
30744;BME280;17486;46.738;7.622;2023-01-23T09:25:45;95912.34;;;1.16;55.18
30744;BME280;17486;46.738;7.622;2023-01-23T09:28:10;95909.78;;;1.21;54.68
30744;BME280;17486;46.738;7.622;2023-01-23T09:30:36;95884.22;;;0.98;54.39
30744;BME280;17486;46.738;7.622;2023-01-23T09:33:02;95924.34;;;1.21;54.14
30744;BME280;17486;46.738;7.622;2023-01-23T09:35:27;95919.22;;;1.21;54.05
30744;BME280;17486;46.738;7.622;2023-01-23T09:37:53;95917.47;;;1.16;54.26
30744;BME280;17486;46.738;7.622;2023-01-23T09:40:34;95889.34;;;0.98;53.86
30744;BME280;17486;46.738;7.622;2023-01-23T09:43:15;95913.25;;;1.08;53.85
30744;BME280;17486;46.738;7.622;2023-01-23T09:46:12;95903.03;;;0.98;53.38
30744;BME280;17486;46.738;7.622;2023-01-23T09:48:53;95914.94;;;0.98;53.43
30744;BME280;17486;46.738;7.622;2023-01-23T09:54:29;95909.84;;;0.93;53.98
30744;BME280;17486;46.738;7.622;2023-01-23T09:57:00;95897.91;;;0.91;54.42
30744;BME280;17486;46.738;7.622;2023-01-23T09:59:34;95876.56;;;0.79;53.70
30744;BME280;17486;46.738;7.622;2023-01-23T10:02:08;95898.75;;;0.97;53.64
30744;BME280;17486;46.738;7.622;2023-01-23T10:04:38;95908.97;;;1.02;53.94
30744;BME280;17486;46.738;7.622;2023-01-23T10:07:24;95911.53;;;1.02;54.11
30744;BME280;17486;46.738;7.622;2023-01-23T10:13:01;95845.00;;;0.80;53.67
30744;BME280;17486;46.738;7.622;2023-01-23T10:18:23;95908.97;;;1.10;53.79
30744;BME280;17486;46.738;7.622;2023-01-23T10:21:00;95897.84;;;1.11;53.45
30744;BME280;17486;46.738;7.622;2023-01-23T10:23:47;95905.53;;;1.12;53.66
30744;BME280;17486;46.738;7.622;2023-01-23T10:26:25;95854.34;;;0.88;53.60
30744;BME280;17486;46.738;7.622;2023-01-23T10:28:56;95885.06;;;1.11;54.20
30744;BME280;17486;46.738;7.622;2023-01-23T10:31:35;95857.78;;;0.96;53.12
30744;BME280;17486;46.738;7.622;2023-01-23T10:39:30;95850.97;;;0.79;53.19
30744;BME280;17486;46.738;7.622;2023-01-23T10:41:56;95844.16;;;0.81;53.70
30744;BME280;17486;46.738;7.622;2023-01-23T10:44:22;95886.75;;;1.07;53.41
30744;BME280;17486;46.738;7.622;2023-01-23T10:46:58;95852.66;;;0.97;52.85
30744;BME280;17486;46.738;7.622;2023-01-23T10:49:34;95864.56;;;1.12;52.84
30744;BME280;17486;46.738;7.622;2023-01-23T10:52:03;95865.44;;;1.13;53.16
30744;BME280;17486;46.738;7.622;2023-01-23T10:54:29;95825.34;;;0.92;53.25
30744;BME280;17486;46.738;7.622;2023-01-23T10:56:58;95868.81;;;1.20;53.38
30744;BME280;17486;46.738;7.622;2023-01-23T10:59:31;95870.50;;;1.22;53.36
30744;BME280;17486;46.738;7.622;2023-01-23T11:02:01;95867.09;;;1.23;53.18
30744;BME280;17486;46.738;7.622;2023-01-23T11:04:30;95827.00;;;1.02;52.97
30744;BME280;17486;46.738;7.622;2023-01-23T11:07:23;95865.38;;;1.30;52.81
30744;BME280;17486;46.738;7.622;2023-01-23T11:10:00;95855.94;;;1.32;52.74
30744;BME280;17486;46.738;7.622;2023-01-23T11:12:31;95858.53;;;1.30;53.09
30744;BME280;17486;46.738;7.622;2023-01-23T11:15:31;95852.53;;;1.33;52.78
30744;BME280;17486;46.738;7.622;2023-01-23T11:17:59;95861.06;;;1.37;52.69
30744;BME280;17486;46.738;7.622;2023-01-23T11:20:36;95853.38;;;1.33;52.66
30744;BME280;17486;46.738;7.622;2023-01-23T11:23:05;95845.69;;;1.38;52.65
30744;BME280;17486;46.738;7.622;2023-01-23T11:25:43;95843.97;;;1.40;52.69
30744;BME280;17486;46.738;7.622;2023-01-23T11:28:31;95840.50;;;1.47;52.81
30744;BME280;17486;46.738;7.622;2023-01-23T11:31:11;95848.19;;;1.51;52.11
30744;BME280;17486;46.738;7.622;2023-01-23T11:38:46;95823.38;;;1.60;52.38
30744;BME280;17486;46.738;7.622;2023-01-23T11:41:13;95785.88;;;1.42;52.00
30744;BME280;17486;46.738;7.622;2023-01-23T11:43:40;95778.19;;;1.42;51.72
30744;BME280;17486;46.738;7.622;2023-01-23T11:51:35;95796.91;;;1.60;51.61
30744;BME280;17486;46.738;7.622;2023-01-23T11:56:45;95827.63;;;1.63;51.21
30744;BME280;17486;46.738;7.622;2023-01-23T12:04:39;95839.59;;;1.65;51.59
30744;BME280;17486;46.738;7.622;2023-01-23T12:07:20;95788.38;;;1.52;51.40
30744;BME280;17486;46.738;7.622;2023-01-23T12:15:11;95806.13;;;1.86;51.22
30744;BME280;17486;46.738;7.622;2023-01-23T12:23:24;95791.47;;;2.02;51.47
30744;BME280;17486;46.738;7.622;2023-01-23T12:31:30;95782.00;;;2.13;50.79
30744;BME280;17486;46.738;7.622;2023-01-23T12:39:47;95786.16;;;2.29;50.82
30744;BME280;17486;46.738;7.622;2023-01-23T12:42:29;95771.53;;;2.33;50.62
30744;BME280;17486;46.738;7.622;2023-01-23T12:47:55;95770.66;;;2.39;50.42
30744;BME280;17486;46.738;7.622;2023-01-23T12:53:13;95729.66;;;2.28;50.42
30744;BME280;17486;46.738;7.622;2023-01-23T12:58:29;95758.53;;;2.53;50.04
30744;BME280;17486;46.738;7.622;2023-01-23T13:01:14;95778.22;;;2.56;50.22
30744;BME280;17486;46.738;7.622;2023-01-23T13:04:00;95744.13;;;2.40;49.89
30744;BME280;17486;46.738;7.622;2023-01-23T13:06:35;95762.81;;;2.53;49.83
30744;BME280;17486;46.738;7.622;2023-01-23T13:14:41;95769.75;;;2.44;49.76
30744;BME280;17486;46.738;7.622;2023-01-23T13:17:35;95774.94;;;2.40;49.55
30744;BME280;17486;46.738;7.622;2023-01-23T13:23:32;95776.66;;;2.36;49.57
30744;BME280;17486;46.738;7.622;2023-01-23T13:28:44;95737.63;;;2.00;49.53
30744;BME280;17486;46.738;7.622;2023-01-23T13:34:00;95738.47;;;1.99;49.53
30744;BME280;17486;46.738;7.622;2023-01-23T13:36:31;95737.63;;;2.00;49.53
30744;BME280;17486;46.738;7.622;2023-01-23T13:41:33;95754.63;;;2.12;49.38
30744;BME280;17486;46.738;7.622;2023-01-23T13:50:19;95772.34;;;2.38;49.81
30744;BME280;17486;46.738;7.622;2023-01-23T13:52:56;95782.63;;;2.38;49.99
30744;BME280;17486;46.738;7.622;2023-01-23T13:55:43;95789.44;;;2.44;49.66
30744;BME280;17486;46.738;7.622;2023-01-23T13:58:31;95777.50;;;2.40;49.63
30744;BME280;17486;46.738;7.622;2023-01-23T14:03:55;95785.28;;;2.29;49.16
30744;BME280;17486;46.738;7.622;2023-01-23T14:06:40;95794.69;;;2.28;49.80
30744;BME280;17486;46.738;7.622;2023-01-23T14:09:30;95739.31;;;2.03;49.68
30744;BME280;17486;46.738;7.622;2023-01-23T14:11:57;95793.84;;;2.28;49.67
30744;BME280;17486;46.738;7.622;2023-01-23T14:14:24;95752.06;;;2.10;49.65
30744;BME280;17486;46.738;7.622;2023-01-23T14:17:10;95775.00;;;2.29;49.56
30744;BME280;17486;46.738;7.622;2023-01-23T14:19:48;95766.50;;;2.22;49.67
30744;BME280;17486;46.738;7.622;2023-01-23T14:22:16;95741.91;;;2.01;49.43
30744;BME280;17486;46.738;7.622;2023-01-23T14:24:44;95736.78;;;1.96;49.68
30744;BME280;17486;46.738;7.622;2023-01-23T14:27:19;95740.19;;;2.03;49.46
30744;BME280;17486;46.738;7.622;2023-01-23T14:29:58;95732.50;;;2.00;49.54
30744;BME280;17486;46.738;7.622;2023-01-23T14:32:26;95752.13;;;2.07;49.48
30744;BME280;17486;46.738;7.622;2023-01-23T14:34:52;95786.16;;;2.29;49.65
30744;BME280;17486;46.738;7.622;2023-01-23T14:37:17;95752.03;;;2.17;49.75
30744;BME280;17486;46.738;7.622;2023-01-23T14:39:45;95739.28;;;2.09;49.15
30744;BME280;17486;46.738;7.622;2023-01-23T14:42:30;95783.56;;;2.31;49.45
30744;BME280;17486;46.738;7.622;2023-01-23T14:44:59;95764.75;;;2.27;49.29
30744;BME280;17486;46.738;7.622;2023-01-23T14:49:52;95794.66;;;2.33;49.44
30744;BME280;17486;46.738;7.622;2023-01-23T14:52:24;95753.81;;;2.10;49.79
30744;BME280;17486;46.738;7.622;2023-01-23T14:54:50;95750.41;;;2.06;49.33
30744;BME280;17486;46.738;7.622;2023-01-23T14:57:18;95748.69;;;2.07;49.43
30744;BME280;17486;46.738;7.622;2023-01-23T14:59:45;95782.66;;;2.35;49.42
30744;BME280;17486;46.738;7.622;2023-01-23T15:07:31;95776.69;;;2.31;49.47
30744;BME280;17486;46.738;7.622;2023-01-23T15:09:56;95750.38;;;2.08;49.28
30744;BME280;17486;46.738;7.622;2023-01-23T15:12:22;95769.97;;;2.20;48.80
30744;BME280;17486;46.738;7.622;2023-01-23T15:14:51;95795.63;;;2.20;49.58
30744;BME280;17486;46.738;7.622;2023-01-23T15:17:20;95788.78;;;2.17;49.14
30744;BME280;17486;46.738;7.622;2023-01-23T15:19:49;95791.38;;;2.15;49.29
30744;BME280;17486;46.738;7.622;2023-01-23T15:22:27;95790.53;;;2.12;49.40